Time;durP1;ratioP1;P1;durP2;ratioP2;P2;SDS_P1;SDS_P2;PMS_P1;PMS_P2;Temp;Humidity;BMP_temperature;BMP_pressure;BME280_temperature;BME280_humidity;BME280_pressure;Samples;Min_cycle;Max_cycle;Signal;HPM_P1;HPM_P2
2021/12/26 00:02:25;;;;;;;3.47;2.10;;;-3272.00;82.70;;;;;;5153347;27;20096;-82
2021/12/26 00:04:51;;;;;;;5.13;2.00;;;-3271.90;82.10;;;;;;5136331;27;20051;-80
2021/12/26 00:07:17;;;;;;;5.07;2.13;;;-3271.90;81.50;;;;;;5153766;27;20042;-77
2021/12/26 00:09:43;;;;;;;5.00;2.38;;;-3271.90;78.60;;;;;;5153449;27;20095;-81
2021/12/26 00:12:09;;;;;;;3.75;1.90;;;-3271.90;77.40;;;;;;5153303;27;20035;-79
2021/12/26 00:14:35;;;;;;;5.82;2.38;;;-3271.90;77.60;;;;;;5136068;27;20121;-79
2021/12/26 00:17:02;;;;;;;5.18;1.92;;;-3272.00;79.40;;;;;;5153643;27;20130;-78
2021/12/26 00:19:27;;;;;;;5.70;2.05;;;-3271.90;79.00;;;;;;5119052;27;20045;-79
2021/12/26 00:21:53;;;;;;;4.55;2.30;;;-3272.00;79.90;;;;;;5153435;27;20126;-77
2021/12/26 00:24:19;;;;;;;4.93;2.05;;;-3272.00;79.60;;;;;;5153201;27;20039;-78
2021/12/26 00:26:45;;;;;;;5.05;1.92;;;-3271.90;77.10;;;;;;5153588;27;20204;-78
2021/12/26 00:29:11;;;;;;;4.78;1.90;;;-3271.90;75.20;;;;;;5136097;27;20043;-78
2021/12/26 00:31:37;;;;;;;4.53;1.98;;;-3271.90;75.90;;;;;;5136038;27;20119;-79
2021/12/26 00:34:03;;;;;;;2.78;1.77;;;-3272.00;76.90;;;;;;5153251;27;20070;-79
2021/12/26 00:36:29;;;;;;;6.60;2.45;;;-3271.90;75.50;;;;;;5136008;27;20133;-81
2021/12/26 00:38:55;;;;;;;3.25;1.80;;;-3272.00;76.60;;;;;;5135827;27;20125;-77
2021/12/26 00:41:20;;;;;;;4.63;2.28;;;-3272.00;76.60;;;;;;5153049;27;20037;-77
2021/12/26 00:43:46;;;;;;;3.08;1.70;;;-3272.00;77.10;;;;;;5135860;27;20034;-77
2021/12/26 00:46:13;;;;;;;4.85;2.90;;;-3272.00;77.70;;;;;;5152974;27;20042;-79
2021/12/26 00:48:38;;;;;;;3.97;1.85;;;-3272.00;77.90;;;;;;5136012;27;20039;-78
2021/12/26 00:51:04;;;;;;;5.40;2.33;;;-3272.00;78.40;;;;;;5136455;27;20142;-76
2021/12/26 00:53:30;;;;;;;4.47;1.98;;;-3272.00;77.90;;;;;;5153148;27;20062;-78
2021/12/26 00:55:56;;;;;;;4.63;1.90;;;-3271.90;79.20;;;;;;5135970;27;20129;-79
2021/12/26 00:58:21;;;;;;;6.60;1.98;;;-3271.80;79.80;;;;;;5118671;27;20482;-79
2021/12/26 01:00:49;;;;;;;4.50;1.65;;;-3271.80;79.80;;;;;;5136588;27;20048;-79
2021/12/26 01:03:17;;;;;;;3.53;2.10;;;-3271.70;79.70;;;;;;5156366;27;20043;-77
2021/12/26 01:05:47;;;;;;;4.63;2.17;;;-3271.60;79.40;;;;;;5156244;27;20066;-76
2021/12/26 01:08:18;;;;;;;3.75;2.42;;;-3271.60;79.30;;;;;;5156380;27;20167;-78
2021/12/26 01:10:52;;;;;;;4.75;2.70;;;-3271.50;79.00;;;;;;5156269;27;20046;-78
2021/12/26 01:15:55;;;;;;;2.35;1.55;;;-3271.50;80.40;;;;;;5156479;27;20606;-77
2021/12/26 01:18:21;;;;;;;5.03;1.95;;;-3271.50;80.20;;;;;;5156918;27;20042;-77
2021/12/26 01:21:01;;;;;;;3.10;1.50;;;-3271.60;80.70;;;;;;5156193;27;20102;-77
2021/12/26 01:23:29;;;;;;;3.85;1.90;;;-3271.70;81.10;;;;;;5140514;27;20046;-77
2021/12/26 01:25:55;;;;;;;5.93;1.67;;;-3271.70;81.00;;;;;;5160037;27;20109;-76
2021/12/26 01:28:23;;;;;;;3.28;1.70;;;-3271.70;81.00;;;;;;5159866;27;20125;-75
2021/12/26 01:30:49;;;;;;;3.58;1.70;;;-3271.70;80.90;;;;;;5142684;27;20078;-77
2021/12/26 01:33:18;;;;;;;3.42;1.85;;;-3271.70;80.90;;;;;;5125404;27;20049;-78
2021/12/26 01:35:44;;;;;;;3.78;1.42;;;-3271.70;80.10;;;;;;5159833;27;20438;-78
2021/12/26 01:38:14;;;;;;;4.60;1.83;;;-3271.70;79.50;;;;;;5159645;27;20117;-79
2021/12/26 01:40:44;;;;;;;4.45;1.73;;;-3271.70;78.30;;;;;;5159550;27;20157;-77
2021/12/26 01:43:11;;;;;;;2.42;1.60;;;-3271.70;79.20;;;;;;5159794;27;20520;-77
2021/12/26 01:45:37;;;;;;;4.10;1.75;;;-3271.70;78.90;;;;;;5159416;27;20048;-79
2021/12/26 01:48:05;;;;;;;2.40;1.52;;;-3271.80;80.70;;;;;;5159410;27;20066;-75
2021/12/26 01:50:31;;;;;;;3.58;1.60;;;-3271.80;80.50;;;;;;5142102;27;20125;-78
2021/12/26 01:52:57;;;;;;;4.13;2.10;;;-3271.70;80.50;;;;;;5159351;27;20079;-78
2021/12/26 01:55:39;;;;;;;5.75;2.03;;;-3271.60;80.20;;;;;;5159245;27;20428;-76
2021/12/26 01:58:26;;;;;;;4.03;1.70;;;-3271.60;79.80;;;;;;5144634;27;20042;-77
2021/12/26 02:01:05;;;;;;;2.60;1.50;;;-3271.60;80.10;;;;;;5158363;27;20074;-78
2021/12/26 02:03:31;;;;;;;4.38;2.03;;;-3271.50;80.00;;;;;;5159159;27;20050;-77
2021/12/26 02:05:57;;;;;;;4.50;1.88;;;-3271.50;79.90;;;;;;5159341;27;20042;-79
2021/12/26 02:08:23;;;;;;;4.07;1.75;;;-3271.40;79.00;;;;;;5141719;27;20030;-78
2021/12/26 02:10:49;;;;;;;3.40;2.05;;;-3271.30;79.00;;;;;;5141596;27;20141;-76
2021/12/26 02:13:15;;;;;;;9.02;2.70;;;-3271.30;79.30;;;;;;5159201;27;20046;-77
2021/12/26 02:15:41;;;;;;;3.38;1.63;;;-3271.30;79.40;;;;;;5141791;27;20038;-77
2021/12/26 02:18:08;;;;;;;3.80;2.10;;;-3271.20;79.70;;;;;;5141828;27;20083;-77
2021/12/26 02:23:35;;;;;;;5.00;1.75;;;-3271.20;80.50;;;;;;5158956;27;20125;-77
2021/12/26 02:28:42;;;;;;;5.93;2.03;;;-3271.20;80.80;;;;;;5142829;27;20512;-76
2021/12/26 02:31:08;;;;;;;4.85;1.95;;;-3271.20;80.80;;;;;;5158613;27;20045;-78
2021/12/26 02:33:35;;;;;;;5.75;2.10;;;-3271.20;80.40;;;;;;5158376;27;20040;-78
2021/12/26 02:36:01;;;;;;;4.90;1.92;;;-3271.20;80.60;;;;;;5158388;27;20125;-77
2021/12/26 02:38:27;;;;;;;2.60;1.85;;;-3271.30;80.90;;;;;;5158427;27;20516;-75
2021/12/26 02:40:55;;;;;;;4.47;1.50;;;-3271.30;80.90;;;;;;5158292;27;20042;-76
2021/12/26 02:43:23;;;;;;;3.10;1.73;;;-3271.20;80.70;;;;;;5141286;27;20095;-76
2021/12/26 02:45:49;;;;;;;3.10;1.70;;;-3271.20;79.00;;;;;;5158435;27;20475;-79
2021/12/26 02:48:16;;;;;;;2.78;1.60;;;-3271.10;78.60;;;;;;5158304;27;20042;-76
2021/12/26 02:50:44;;;;;;;4.57;1.90;;;-3271.20;79.00;;;;;;5140971;27;20130;-76
2021/12/26 02:53:20;;;;;;;4.50;1.60;;;-3271.20;79.50;;;;;;5140855;27;20046;-75
2021/12/26 02:55:50;;;;;;;3.22;1.60;;;-3271.20;79.50;;;;;;5158580;27;20413;-77
2021/12/26 02:58:20;;;;;;;3.58;1.80;;;-3271.20;80.60;;;;;;5141161;27;20046;-75
2021/12/26 03:00:56;;;;;;;3.60;1.75;;;-3271.30;80.80;;;;;;5157828;27;20401;-77
2021/12/26 03:03:23;;;;;;;5.53;1.67;;;-3271.20;80.70;;;;;;5140774;27;20049;-77
2021/12/26 03:05:56;;;;;;;3.78;1.60;;;-3271.20;80.80;;;;;;5157992;27;20034;-77
2021/12/26 03:08:22;;;;;;;2.90;2.15;;;-3271.20;80.80;;;;;;5157826;27;20069;-79
2021/12/26 03:10:48;;;;;;;5.00;1.70;;;-3271.20;80.60;;;;;;5158103;27;20093;-76
2021/12/26 03:13:15;;;;;;;2.92;1.83;;;-3271.20;79.50;;;;;;5157988;27;20463;-75
2021/12/26 03:15:42;;;;;;;11.57;5.00;;;-3271.20;79.50;;;;;;5157604;27;20504;-79
2021/12/26 03:18:08;;;;;;;3.33;2.00;;;-3271.20;80.20;;;;;;5157714;27;20057;-77
2021/12/26 03:20:39;;;;;;;15.82;7.53;;;-3271.20;80.40;;;;;;5123355;27;20065;-78
2021/12/26 03:23:06;;;;;;;6.85;3.40;;;-3271.10;79.90;;;;;;5140659;27;20292;-76
2021/12/26 03:25:33;;;;;;;3.40;1.83;;;-3271.10;79.00;;;;;;5157444;27;20070;-75
2021/12/26 03:28:00;;;;;;;4.63;1.80;;;-3271.10;78.50;;;;;;5157188;27;20041;-77
2021/12/26 03:30:29;;;;;;;3.95;1.77;;;-3271.20;79.40;;;;;;5157676;27;20397;-76
2021/12/26 03:32:56;;;;;;;2.90;1.58;;;-3271.20;79.90;;;;;;5157612;27;20038;-76
2021/12/26 03:35:24;;;;;;;4.38;2.53;;;-3271.20;79.50;;;;;;5140070;27;20049;-78
2021/12/26 03:37:50;;;;;;;3.30;1.38;;;-3271.20;79.20;;;;;;5140326;27;20362;-77
2021/12/26 03:40:16;;;;;;;3.53;1.60;;;-3271.20;79.20;;;;;;5139848;27;20038;-77
2021/12/26 03:42:42;;;;;;;3.58;1.45;;;-3271.10;78.70;;;;;;5139702;27;20049;-75
2021/12/26 03:45:09;;;;;;;2.95;1.35;;;-3271.10;77.70;;;;;;5157052;27;20045;-76
2021/12/26 03:47:36;;;;;;;2.60;1.50;;;-3271.10;77.10;;;;;;5156832;27;20114;-77
2021/12/26 03:50:03;;;;;;;5.05;2.33;;;-3271.10;79.20;;;;;;5157167;27;20038;-77
2021/12/26 03:52:29;;;;;;;2.97;1.40;;;-3271.10;77.40;;;;;;5139929;27;20125;-75
2021/12/26 03:54:55;;;;;;;3.78;1.40;;;-3271.10;76.70;;;;;;5157050;27;20073;-76
2021/12/26 03:57:20;;;;;;;3.53;1.40;;;-3271.10;76.80;;;;;;5122952;27;20121;-77
2021/12/26 03:59:46;;;;;;;2.72;1.50;;;-3271.10;75.50;;;;;;5139716;27;20434;-76
2021/12/26 04:02:14;;;;;;;5.05;2.08;;;-3271.10;76.20;;;;;;5122361;27;20517;-78
2021/12/26 04:04:41;;;;;;;2.60;1.80;;;-3271.20;77.50;;;;;;5139889;27;20087;-79
2021/12/26 04:07:08;;;;;;;3.17;1.50;;;-3271.30;78.60;;;;;;5139852;27;20102;-76
2021/12/26 04:09:34;;;;;;;2.92;1.83;;;-3271.40;79.20;;;;;;5157077;27;20430;-77
2021/12/26 04:11:59;;;;;;;3.20;1.52;;;-3271.30;79.10;;;;;;5157142;27;20130;-78
2021/12/26 04:14:25;;;;;;;3.50;1.67;;;-3271.30;79.10;;;;;;5156694;27;20375;-76
2021/12/26 04:16:51;;;;;;;2.40;1.50;;;-3271.20;79.10;;;;;;5122199;27;20038;-77
2021/12/26 04:19:17;;;;;;;3.22;1.70;;;-3271.20;79.40;;;;;;5156662;27;20103;-76
2021/12/26 04:21:42;;;;;;;2.50;1.42;;;-3271.10;78.30;;;;;;5139461;27;20030;-74
2021/12/26 04:24:08;;;;;;;3.25;1.90;;;-3271.00;76.30;;;;;;5139396;27;20046;-77
2021/12/26 04:26:34;;;;;;;2.92;1.50;;;-3271.10;78.50;;;;;;5122249;27;20130;-75
2021/12/26 04:29:00;;;;;;;2.90;1.50;;;-3271.10;78.50;;;;;;5139775;27;20038;-77
2021/12/26 04:31:26;;;;;;;3.20;1.40;;;-3271.10;78.30;;;;;;5156470;27;20513;-77
2021/12/26 04:33:52;;;;;;;3.65;1.60;;;-3271.10;77.20;;;;;;5139785;27;20038;-77
2021/12/26 04:36:18;;;;;;;3.78;1.40;;;-3271.10;78.40;;;;;;5139346;27;20042;-78
2021/12/26 04:38:44;;;;;;;3.15;1.73;;;-3271.10;77.40;;;;;;5139275;27;20042;-75
2021/12/26 04:41:12;;;;;;;4.35;1.35;;;-3271.00;77.70;;;;;;5156441;27;20046;-76
2021/12/26 04:43:38;;;;;;;3.35;1.70;;;-3271.10;78.20;;;;;;5156832;27;20069;-79
2021/12/26 04:46:06;;;;;;;3.85;1.65;;;-3271.10;78.20;;;;;;5156411;27;20486;-76
2021/12/26 04:48:36;;;;;;;3.58;1.50;;;-3271.10;78.60;;;;;;5139301;27;20039;-77
2021/12/26 04:51:03;;;;;;;3.50;1.40;;;-3271.10;76.80;;;;;;5139769;27;20405;-75
2021/12/26 04:53:29;;;;;;;4.03;1.45;;;-3271.10;76.40;;;;;;5139145;27;20053;-77
2021/12/26 04:55:55;;;;;;;2.38;1.10;;;-3271.10;76.50;;;;;;5122132;27;20406;-76
2021/12/26 04:58:21;;;;;;;3.25;1.50;;;-3271.10;76.90;;;;;;5157796;27;20042;-75
2021/12/26 05:00:47;;;;;;;4.75;1.98;;;-3271.10;77.90;;;;;;5143003;27;20557;-76
2021/12/26 05:03:14;;;;;;;1.80;1.35;;;-3271.10;77.30;;;;;;5160157;27;20141;-76
2021/12/26 05:05:40;;;;;;;5.18;1.58;;;-3271.00;76.40;;;;;;5160242;27;20049;-77
2021/12/26 05:08:06;;;;;;;2.78;1.38;;;-3271.00;77.20;;;;;;5160178;27;20030;-75
2021/12/26 05:10:32;;;;;;;2.63;1.50;;;-3271.10;78.10;;;;;;5143046;27;20121;-74
2021/12/26 05:13:01;;;;;;;2.70;1.65;;;-3271.00;78.20;;;;;;5142891;27;20046;-76
2021/12/26 05:15:27;;;;;;;4.05;1.55;;;-3270.90;77.60;;;;;;5160006;27;20073;-76
2021/12/26 05:17:54;;;;;;;3.15;1.95;;;-3270.80;76.00;;;;;;5142693;27;20049;-75
2021/12/26 05:20:21;;;;;;;2.90;1.55;;;-3270.80;77.30;;;;;;5159960;27;20038;-77
2021/12/26 05:22:48;;;;;;;4.45;2.03;;;-3270.90;77.40;;;;;;5159970;27;20046;-78
2021/12/26 05:25:14;;;;;;;2.47;1.52;;;-3270.90;77.30;;;;;;5159819;27;20066;-76
2021/12/26 05:27:41;;;;;;;1.98;1.30;;;-3270.90;77.00;;;;;;5142846;27;20389;-75
2021/12/26 05:30:11;;;;;;;2.28;1.35;;;-3270.80;76.30;;;;;;5159803;27;20045;-75
2021/12/26 05:32:37;;;;;;;3.47;1.90;;;-3270.90;78.00;;;;;;5159968;27;20038;-75
2021/12/26 05:35:03;;;;;;;7.68;1.70;;;-3270.90;78.30;;;;;;5142419;27;20038;-76
2021/12/26 05:37:29;;;;;;;2.78;1.38;;;-3271.00;78.80;;;;;;5159999;27;20497;-74
2021/12/26 05:39:56;;;;;;;2.92;1.70;;;-3271.00;77.70;;;;;;5159703;27;20076;-79
2021/12/26 05:42:23;;;;;;;5.20;1.45;;;-3271.10;78.30;;;;;;5159545;27;20478;-77
2021/12/26 05:44:49;;;;;;;1.98;1.40;;;-3271.10;78.60;;;;;;5142456;27;20103;-76
2021/12/26 05:47:15;;;;;;;3.13;1.60;;;-3271.10;79.30;;;;;;5159510;27;20039;-76
2021/12/26 05:49:41;;;;;;;4.20;2.05;;;-3271.10;79.00;;;;;;5159652;27;20385;-78
2021/12/26 05:52:08;;;;;;;5.35;1.77;;;-3271.10;79.00;;;;;;5159400;27;20086;-75
2021/12/26 05:54:34;;;;;;;3.38;1.85;;;-3271.10;79.00;;;;;;5159212;27;20046;-74
2021/12/26 05:57:00;;;;;;;3.13;1.45;;;-3271.20;78.90;;;;;;5159283;27;20038;-77
2021/12/26 05:59:26;;;;;;;4.32;1.52;;;-3271.20;78.00;;;;;;5159168;27;20046;-75
2021/12/26 06:01:52;;;;;;;3.22;1.65;;;-3271.20;79.10;;;;;;5159000;27;20194;-76
2021/12/26 06:04:18;;;;;;;3.63;1.40;;;-3271.30;79.00;;;;;;5124953;27;20040;-77
2021/12/26 06:06:44;;;;;;;4.50;2.15;;;-3271.30;78.90;;;;;;5141709;27;20569;-73
2021/12/26 06:09:10;;;;;;;2.45;1.45;;;-3271.20;76.00;;;;;;5158566;27;20050;-75
2021/12/26 06:11:36;;;;;;;4.28;1.60;;;-3271.30;79.00;;;;;;5159038;27;20553;-74
2021/12/26 06:14:02;;;;;;;6.47;1.60;;;-3271.30;79.10;;;;;;5158946;27;20130;-77
2021/12/26 06:16:28;;;;;;;2.80;1.60;;;-3271.30;78.00;;;;;;5158610;27;20071;-73
2021/12/26 06:18:54;;;;;;;3.85;1.67;;;-3271.30;78.20;;;;;;5158864;27;20038;-76
2021/12/26 06:21:20;;;;;;;4.35;1.80;;;-3271.30;78.90;;;;;;5158668;27;20046;-75
2021/12/26 06:23:50;;;;;;;2.20;1.40;;;-3271.30;78.00;;;;;;5158647;27;20077;-77
2021/12/26 06:26:17;;;;;;;4.72;2.13;;;-3271.30;78.50;;;;;;5158637;27;20038;-73
2021/12/26 06:28:43;;;;;;;3.10;1.60;;;-3271.30;79.20;;;;;;5158981;27;20034;-75
2021/12/26 06:31:08;;;;;;;3.53;1.75;;;-3271.30;79.30;;;;;;5124144;27;20056;-76
2021/12/26 06:33:34;;;;;;;4.40;1.77;;;-3271.30;78.10;;;;;;5158829;27;20042;-75
2021/12/26 06:36:00;;;;;;;3.60;1.75;;;-3271.30;79.20;;;;;;5124019;27;20034;-76
2021/12/26 06:38:25;;;;;;;3.17;1.67;;;-3271.30;77.00;;;;;;5158715;27;20086;-74
2021/12/26 06:40:51;;;;;;;4.47;1.48;;;-3271.40;79.30;;;;;;5140853;27;20383;-75
2021/12/26 06:43:17;;;;;;;3.10;1.95;;;-3271.40;79.60;;;;;;5158426;27;20034;-76
2021/12/26 06:45:42;;;;;;;3.25;1.85;;;-3271.30;79.50;;;;;;5158365;27;20048;-76
2021/12/26 06:48:08;;;;;;;2.25;1.42;;;-3271.30;78.10;;;;;;5140872;27;20186;-75
2021/12/26 06:50:35;;;;;;;5.40;3.25;;;-3271.40;79.30;;;;;;5123869;27;20047;-75
2021/12/26 06:53:01;;;;;;;4.03;2.00;;;-3271.40;78.80;;;;;;5141171;27;20389;-76
2021/12/26 06:55:27;;;;;;;4.32;1.90;;;-3271.40;79.00;;;;;;5123713;27;20125;-75
2021/12/26 06:57:53;;;;;;;2.90;1.77;;;-3271.40;79.10;;;;;;5140753;27;20046;-76
2021/12/26 07:00:18;;;;;;;2.72;1.60;;;-3271.40;79.00;;;;;;5140604;27;20136;-76
2021/12/26 07:02:45;;;;;;;4.57;1.92;;;-3271.40;79.00;;;;;;5154294;27;20498;-75
2021/12/26 07:05:12;;;;;;;3.20;1.67;;;-3271.30;79.00;;;;;;5154693;27;20091;-73
2021/12/26 07:07:39;;;;;;;3.55;1.95;;;-3271.30;78.40;;;;;;5137199;27;20054;-74
2021/12/26 07:10:06;;;;;;;4.22;2.00;;;-3271.30;78.60;;;;;;5154424;27;20039;-77
2021/12/26 07:12:31;;;;;;;2.88;1.70;;;-3271.40;79.50;;;;;;5154602;27;20457;-77
2021/12/26 07:14:57;;;;;;;3.17;2.03;;;-3271.40;79.10;;;;;;5154517;27;20082;-76
2021/12/26 07:17:23;;;;;;;3.65;2.17;;;-3271.40;79.30;;;;;;5154457;27;20439;-75
2021/12/26 07:19:49;;;;;;;3.95;2.35;;;-3271.40;78.30;;;;;;5154064;27;20546;-74
2021/12/26 07:22:14;;;;;;;3.15;1.60;;;-3271.40;77.00;;;;;;5119392;27;20491;-76
2021/12/26 07:24:43;;;;;;;5.38;2.00;;;-3271.30;76.60;;;;;;5154287;27;20466;-75
2021/12/26 07:27:11;;;;;;;6.40;2.53;;;-3271.30;77.00;;;;;;5154102;27;20092;-74
2021/12/26 07:29:37;;;;;;;5.13;2.40;;;-3271.30;78.10;;;;;;5154055;27;20554;-77
2021/12/26 07:32:04;;;;;;;4.32;2.10;;;-3271.30;77.80;;;;;;5154005;27;20042;-76
2021/12/26 07:34:30;;;;;;;4.03;2.05;;;-3271.30;77.90;;;;;;5136534;27;20038;-75
2021/12/26 07:36:55;;;;;;;3.15;2.00;;;-3271.30;76.40;;;;;;5153924;27;20039;-77
2021/12/26 07:39:21;;;;;;;4.93;2.17;;;-3271.30;77.00;;;;;;5153593;27;20045;-76
2021/12/26 07:41:47;;;;;;;4.80;2.00;;;-3271.30;78.60;;;;;;5136453;27;20039;-75
2021/12/26 07:44:12;;;;;;;5.07;2.28;;;-3271.30;78.50;;;;;;5136185;27;20043;-76
2021/12/26 07:46:38;;;;;;;4.07;2.03;;;-3271.30;79.00;;;;;;5135961;27;20383;-76
2021/12/26 07:49:04;;;;;;;5.30;2.38;;;-3271.20;78.50;;;;;;5153409;27;20030;-76
2021/12/26 07:51:30;;;;;;;3.22;1.95;;;-3271.20;77.40;;;;;;5153559;27;20316;-76
2021/12/26 07:54:01;;;;;;;3.45;2.35;;;-3271.20;76.00;;;;;;5153621;27;20126;-76
2021/12/26 07:56:26;;;;;;;4.88;2.70;;;-3271.20;77.80;;;;;;5136377;27;20045;-77
2021/12/26 07:58:52;;;;;;;3.60;2.08;;;-3271.20;77.30;;;;;;5136396;27;20039;-79
2021/12/26 08:01:18;;;;;;;5.78;2.78;;;-3271.30;78.90;;;;;;5153495;27;20054;-77
2021/12/26 08:03:44;;;;;;;4.53;2.40;;;-3271.30;79.00;;;;;;5152829;27;20042;-78
2021/12/26 08:06:16;;;;;;;5.88;3.08;;;-3271.30;78.20;;;;;;5135810;27;20038;-75
2021/12/26 08:08:42;;;;;;;4.18;2.40;;;-3271.30;77.00;;;;;;5153615;27;20118;-77
2021/12/26 08:11:08;;;;;;;4.05;2.33;;;-3271.30;77.00;;;;;;5153458;27;20046;-77
2021/12/26 08:13:34;;;;;;;6.95;2.83;;;-3271.30;75.50;;;;;;5152332;27;20042;-77
2021/12/26 08:16:00;;;;;;;5.90;3.33;;;-3271.40;75.70;;;;;;5135542;27;20042;-74
2021/12/26 08:18:26;;;;;;;8.25;2.75;;;-3271.40;74.60;;;;;;5136146;27;20043;-75
2021/12/26 08:20:52;;;;;;;4.35;2.80;;;-3271.40;75.20;;;;;;5136203;27;20171;-74
2021/12/26 08:23:17;;;;;;;4.82;2.90;;;-3271.40;75.10;;;;;;5153219;27;20035;-74
2021/12/26 08:25:43;;;;;;;4.47;2.65;;;-3271.40;76.70;;;;;;5153412;27;20513;-75
2021/12/26 08:28:09;;;;;;;5.38;3.35;;;-3271.50;76.30;;;;;;5153520;27;20030;-74
2021/12/26 08:30:36;;;;;;;5.07;2.95;;;-3271.50;75.50;;;;;;5153187;27;20543;-76
2021/12/26 08:33:06;;;;;;;6.22;2.58;;;-3271.60;76.10;;;;;;5138810;27;20382;-75
2021/12/26 08:35:32;;;;;;;4.78;2.65;;;-3271.60;77.40;;;;;;5157355;27;20066;-74
2021/12/26 08:37:58;;;;;;;5.63;2.53;;;-3271.70;77.60;;;;;;5140149;27;20133;-74
2021/12/26 08:40:24;;;;;;;4.60;2.72;;;-3271.70;76.40;;;;;;5157233;27;20038;-75
2021/12/26 08:42:50;;;;;;;5.50;3.55;;;-3271.70;73.90;;;;;;5157256;27;20038;-76
2021/12/26 08:45:16;;;;;;;5.80;2.90;;;-3271.80;72.90;;;;;;5123067;27;20087;-76
2021/12/26 08:47:42;;;;;;;4.10;2.80;;;-3271.80;76.60;;;;;;5157471;27;20067;-78
2021/12/26 08:50:10;;;;;;;7.65;4.07;;;-3271.90;75.90;;;;;;5139821;27;20085;-74
2021/12/26 08:52:36;;;;;;;4.97;2.70;;;-3271.80;73.90;;;;;;5157358;27;20441;-77
2021/12/26 08:55:03;;;;;;;5.30;2.95;;;-3271.90;73.50;;;;;;5139746;27;20039;-78
2021/12/26 08:57:30;;;;;;;5.10;3.40;;;-3271.90;74.40;;;;;;5156951;27;20050;-75
2021/12/26 08:59:56;;;;;;;5.35;3.03;;;-3272.00;72.10;;;;;;5156947;27;20053;-74
2021/12/26 09:02:23;;;;;;;8.07;3.80;;;-3272.00;72.10;;;;;;5156999;27;20402;-76
2021/12/26 09:04:49;;;;;;;5.75;3.63;;;-3272.00;71.80;;;;;;5139812;27;20039;-75
2021/12/26 09:07:14;;;;;;;5.30;3.85;;;-3272.10;71.70;;;;;;5157161;27;20586;-76
2021/12/26 09:09:41;;;;;;;5.68;3.22;;;-3272.10;72.10;;;;;;5139614;27;20398;-77
2021/12/26 09:12:08;;;;;;;5.20;2.75;;;-3272.20;72.10;;;;;;5156880;27;20214;-78
2021/12/26 09:14:34;;;;;;;4.55;2.80;;;-3272.20;71.40;;;;;;5156621;27;20043;-76
2021/12/26 09:17:01;;;;;;;4.13;2.67;;;-3272.30;72.60;;;;;;5156629;27;20062;-76
2021/12/26 09:19:29;;;;;;;6.45;3.22;;;-3272.40;73.20;;;;;;5156522;27;20039;-81
2021/12/26 09:21:57;;;;;;;4.00;2.35;;;-3272.40;71.20;;;;;;5139338;27;20119;-73
2021/12/26 09:24:22;;;;;;;7.90;3.53;;;-3272.40;71.40;;;;;;5156633;27;20046;-75
2021/12/26 09:26:48;;;;;;;6.53;3.85;;;-3272.40;70.00;;;;;;5139429;27;20398;-76
2021/12/26 09:29:14;;;;;;;5.90;3.58;;;-3272.50;70.70;;;;;;5139194;27;20041;-76
2021/12/26 09:31:40;;;;;;;4.28;3.08;;;-3272.50;70.50;;;;;;5156317;27;20039;-79
2021/12/26 09:34:06;;;;;;;4.20;2.63;;;-3272.60;70.80;;;;;;5156522;27;20069;-79
2021/12/26 09:36:32;;;;;;;4.57;2.55;;;-3272.60;68.70;;;;;;5156085;27;20512;-79
2021/12/26 09:38:58;;;;;;;6.68;2.80;;;-3272.70;69.80;;;;;;5156174;27;20054;-75
2021/12/26 09:41:24;;;;;;;5.72;2.70;;;-3272.80;69.00;;;;;;5156066;27;20502;-77
2021/12/26 09:43:50;;;;;;;5.22;3.13;;;-3272.90;72.00;;;;;;5155262;27;20050;-76
2021/12/26 09:46:16;;;;;;;4.78;3.13;;;-3272.90;69.30;;;;;;5156042;27;20068;-76
2021/12/26 09:48:41;;;;;;;4.75;2.70;;;-3273.00;69.00;;;;;;5156198;27;20039;-77
2021/12/26 09:51:07;;;;;;;6.03;2.88;;;-3273.00;67.60;;;;;;5155968;27;20368;-75
2021/12/26 09:53:38;;;;;;;4.78;2.90;;;-3273.10;70.20;;;;;;5155891;27;20082;-75
2021/12/26 09:56:06;;;;;;;3.78;2.70;;;-3273.20;68.50;;;;;;5155836;27;20050;-73
2021/12/26 09:58:32;;;;;;;4.65;3.05;;;-3273.30;68.40;;;;;;5155799;27;20081;-78
2021/12/26 10:00:58;;;;;;;5.60;3.10;;;-3273.40;69.40;;;;;;5155701;27;20538;-75
2021/12/26 10:03:36;;;;;;;5.20;2.80;;;-3273.50;67.50;;;;;;5138310;27;20130;-73
2021/12/26 10:06:17;;;;;;;7.20;3.63;;;-3273.60;66.50;;;;;;5155753;27;20067;-77
2021/12/26 10:09:07;;;;;;;5.97;3.25;;;-3273.60;69.10;;;;;;5155954;27;20539;-78
2021/12/26 10:11:45;;;;;;;3.72;2.70;;;-3273.80;69.90;;;;;;5138224;27;20048;-79
2021/12/26 10:14:15;;;;;;;5.75;3.25;;;-3273.80;68.10;;;;;;5155683;27;20043;-76
2021/12/26 10:16:53;;;;;;;4.35;2.83;;;-3273.90;66.10;;;;;;5155456;27;20050;-76
2021/12/26 10:19:19;;;;;;;4.07;2.80;;;-3274.00;68.10;;;;;;5155698;27;20394;-76
2021/12/26 10:21:58;;;;;;;5.25;3.00;;;-3274.10;69.90;;;;;;5155542;27;20048;-71
2021/12/26 10:24:33;;;;;;;4.97;2.70;;;-3274.10;66.20;;;;;;5155650;27;20031;-72
2021/12/26 10:27:14;;;;;;;5.78;3.50;;;-3274.20;67.90;;;;;;5157379;27;20045;-70
2021/12/26 10:29:42;;;;;;;6.72;3.70;;;-3274.30;66.80;;;;;;5155666;27;20091;-75
2021/12/26 10:32:09;;;;;;;6.55;3.85;;;-3274.30;67.90;;;;;;5155313;27;20198;-73
2021/12/26 10:34:42;;;;;;;5.72;3.15;;;-3274.50;70.70;;;;;;5155144;27;20126;-75
2021/12/26 10:37:29;;;;;;;6.28;3.13;;;-3274.50;69.90;;;;;;5117536;27;20057;-75
2021/12/26 10:39:57;;;;;;;6.30;3.28;;;-3274.60;70.00;;;;;;5117124;27;20091;-75
2021/12/26 10:42:29;;;;;;;4.90;3.25;;;-3274.60;67.00;;;;;;5143612;27;20035;-74
2021/12/26 10:44:59;;;;;;;4.15;3.22;;;-3274.70;69.30;;;;;;5154567;27;20105;-74
2021/12/26 10:47:27;;;;;;;6.45;3.10;;;-3274.80;68.00;;;;;;5154933;27;20553;-75
2021/12/26 10:50:03;;;;;;;6.57;3.15;;;-3274.90;67.90;;;;;;5155057;27;20152;-77
2021/12/26 10:52:34;;;;;;;5.00;3.42;;;-3274.90;67.20;;;;;;5154943;27;20050;-77
2021/12/26 10:55:03;;;;;;;4.78;2.88;;;-3275.00;65.60;;;;;;5154677;27;20046;-72
2021/12/26 10:57:35;;;;;;;6.18;3.42;;;-3275.00;66.20;;;;;;5154710;27;20076;-72
2021/12/26 11:00:22;;;;;;;5.75;3.30;;;-3275.10;67.70;;;;;;5154570;27;20490;-75
2021/12/26 11:02:49;;;;;;;5.03;3.30;;;-3275.20;66.20;;;;;;5137081;27;20074;-76
2021/12/26 11:05:23;;;;;;;6.38;3.53;;;-3275.30;68.50;;;;;;5154811;27;20050;-74
2021/12/26 11:07:57;;;;;;;6.50;3.70;;;-3275.40;68.10;;;;;;5137228;27;20038;-77
2021/12/26 11:10:31;;;;;;;6.00;3.33;;;-3275.50;67.00;;;;;;5137448;27;20039;-77
2021/12/26 11:12:59;;;;;;;6.88;4.45;;;-3275.60;68.00;;;;;;5154541;27;20039;-73
2021/12/26 11:15:32;;;;;;;6.03;3.70;;;-3275.70;67.60;;;;;;5136777;27;20045;-76
2021/12/26 11:18:11;;;;;;;4.53;3.47;;;-3275.80;68.90;;;;;;5153758;27;20281;-78
2021/12/26 11:20:50;;;;;;;4.28;3.85;;;-3275.80;67.70;;;;;;5152242;27;20122;-76
2021/12/26 11:23:19;;;;;;;5.15;3.45;;;-3275.90;66.60;;;;;;5152246;27;20359;-80
2021/12/26 11:25:49;;;;;;;6.00;3.80;;;-3275.90;63.80;;;;;;5153637;27;20485;-80
2021/12/26 11:28:16;;;;;;;7.57;3.80;;;-3276.00;66.40;;;;;;5136710;27;20034;-75
2021/12/26 11:30:44;;;;;;;5.15;3.63;;;-3276.10;68.50;;;;;;5136305;27;20038;-79
2021/12/26 11:33:12;;;;;;;7.00;3.65;;;-3276.10;68.80;;;;;;5151118;27;20074;-78
2021/12/26 11:35:40;;;;;;;5.93;3.65;;;-3276.10;66.10;;;;;;5153633;27;20048;-74
2021/12/26 11:38:10;;;;;;;6.43;3.97;;;-3276.30;68.50;;;;;;5156201;27;20492;-76
2021/12/26 11:40:37;;;;;;;5.43;3.75;;;-3276.40;69.20;;;;;;5137151;27;20103;-77
2021/12/26 11:43:13;;;;;;;7.15;3.55;;;-3276.50;67.90;;;;;;5154485;27;20066;-76
2021/12/26 11:45:55;;;;;;;7.32;4.40;;;-3276.50;65.30;;;;;;5154202;27;20047;-80
2021/12/26 11:48:43;;;;;;;7.43;3.65;;;-3276.60;67.80;;;;;;5154436;27;20035;-76
2021/12/26 11:51:38;;;;;;;5.82;3.58;;;0.00;68.20;;;;;;5154303;27;20035;-77
2021/12/26 11:54:31;;;;;;;5.25;3.95;;;0.10;65.90;;;;;;5154861;27;20039;-79
2021/12/26 11:57:04;;;;;;;5.53;4.10;;;0.10;64.90;;;;;;5155790;27;20439;-76
2021/12/26 12:00:02;;;;;;;6.40;3.90;;;0.10;64.60;;;;;;5154817;27;20084;-77
2021/12/26 12:02:46;;;;;;;5.93;3.97;;;0.30;66.20;;;;;;5155577;27;20051;-76
2021/12/26 12:05:18;;;;;;;5.35;3.80;;;0.40;66.00;;;;;;5139162;27;20039;-78
2021/12/26 12:07:56;;;;;;;6.90;4.15;;;0.40;62.30;;;;;;5157394;27;20030;-77
2021/12/26 12:10:55;;;;;;;4.22;3.13;;;0.50;65.00;;;;;;5139618;27;20049;-79
2021/12/26 12:13:26;;;;;;;5.82;3.85;;;0.50;61.50;;;;;;5154987;27;20406;-79
2021/12/26 12:15:56;;;;;;;6.30;3.75;;;0.60;62.50;;;;;;5137148;27;20039;-80
2021/12/26 12:18:34;;;;;;;4.60;3.55;;;0.80;64.00;;;;;;5154978;27;20043;-77
2021/12/26 12:21:13;;;;;;;5.35;3.60;;;0.90;63.30;;;;;;5138016;27;20049;-78
2021/12/26 12:24:02;;;;;;;6.65;4.38;;;1.00;62.50;;;;;;5155069;27;20044;-78
2021/12/26 12:26:40;;;;;;;6.88;4.13;;;1.00;61.20;;;;;;5154123;27;20094;-75
2021/12/26 12:29:07;;;;;;;5.07;3.40;;;1.20;62.20;;;;;;5136699;27;20443;-80
2021/12/26 12:31:33;;;;;;;6.68;3.72;;;1.40;61.50;;;;;;5136645;27;20117;-81
2021/12/26 12:34:08;;;;;;;6.55;4.22;;;1.40;60.20;;;;;;5153145;27;20086;-80
2021/12/26 12:36:38;;;;;;;5.65;4.07;;;1.50;60.10;;;;;;5133513;27;20042;-80